Time;durP1;ratioP1;P1;durP2;ratioP2;P2;SDS_P1;SDS_P2;PMS_P1;PMS_P2;Temp;Humidity;BMP_temperature;BMP_pressure;BME280_temperature;BME280_humidity;BME280_pressure;Samples;Min_cycle;Max_cycle;Signal;HPM_P1;HPM_P2
2021/08/03 00:00:10;;;;;;;5.03;3.90;;;;;;;12.75;100.00;101018.53;4980469;28;20051;-85
2021/08/03 00:02:38;;;;;;;6.00;4.53;;;;;;;12.71;100.00;101011.78;4997369;28;20054;-81
2021/08/03 00:05:04;;;;;;;5.35;4.18;;;;;;;12.64;100.00;101014.34;4965940;28;20583;-83
2021/08/03 00:07:31;;;;;;;6.63;4.50;;;;;;;12.63;100.00;101014.53;4962943;28;20050;-83
2021/08/03 00:09:57;;;;;;;5.38;4.43;;;;;;;12.62;100.00;101018.22;4965928;28;20551;-82
2021/08/03 00:12:23;;;;;;;7.47;4.30;;;;;;;12.56;100.00;101008.13;4967741;28;20130;-83
2021/08/03 00:14:51;;;;;;;5.47;4.20;;;;;;;12.52;100.00;101009.50;4965689;28;20496;-84
2021/08/03 00:17:26;;;;;;;5.22;4.13;;;;;;;12.50;100.00;101001.59;4964826;28;20208;-82
2021/08/03 00:19:53;;;;;;;8.07;6.25;;;;;;;12.49;100.00;101004.47;4973953;28;20433;-85
2021/08/03 00:22:22;;;;;;;7.82;6.65;;;;;;;12.41;100.00;101008.00;4972182;28;20096;-85
2021/08/03 00:24:48;;;;;;;;;;;;;;;12.36;100.00;101004.97;4976515;28;20046;-85
2021/08/03 00:27:14;;;;;;;12.88;8.10;;;;;;;12.29;100.00;101004.84;4997149;28;19943;-82
2021/08/03 00:29:40;;;;;;;10.48;7.80;;;;;;;12.28;100.00;101005.00;4981272;28;20065;-84
2021/08/03 00:32:06;;;;;;;10.25;8.13;;;;;;;12.31;100.00;100999.25;4982418;28;20402;-84
2021/08/03 00:34:35;;;;;;;9.80;6.93;;;;;;;12.29;100.00;101002.16;4979363;28;20050;-82
2021/08/03 00:37:01;;;;;;;8.35;6.05;;;;;;;12.29;100.00;101006.69;4977500;28;20038;-83
2021/08/03 00:39:26;;;;;;;9.38;5.80;;;;;;;12.28;100.00;100999.59;4961786;28;20316;-83
2021/08/03 00:41:59;;;;;;;7.32;4.70;;;;;;;12.28;100.00;101000.44;4973968;28;20525;-84
2021/08/03 00:44:45;;;;;;;9.50;6.50;;;;;;;12.25;100.00;101006.16;4958032;28;20046;-80
2021/08/03 00:47:12;;;;;;;11.90;7.88;;;;;;;12.28;100.00;100997.75;4960153;28;20039;-82
2021/08/03 00:49:39;;;;;;;12.52;8.20;;;;;;;12.29;100.00;101004.84;4961683;28;20316;-84
2021/08/03 00:52:07;;;;;;;10.35;6.47;;;;;;;12.30;100.00;101006.50;4974860;28;20042;-82
2021/08/03 00:54:33;;;;;;;8.93;6.57;;;;;;;12.31;100.00;100993.88;4941580;28;20034;-83
2021/08/03 00:56:58;;;;;;;8.48;6.57;;;;;;;12.33;100.00;100997.25;4957520;28;20050;-80
2021/08/03 00:59:24;;;;;;;8.05;6.03;;;;;;;12.33;100.00;100999.94;4959749;28;20534;-85
2021/08/03 01:01:50;;;;;;;8.32;5.80;;;;;;;12.34;100.00;100997.09;4950997;28;20065;-81
2021/08/03 01:04:17;;;;;;;7.78;5.53;;;;;;;12.33;100.00;101006.16;4957391;28;20078;-84
2021/08/03 01:06:51;;;;;;;7.55;5.30;;;;;;;12.27;100.00;100998.78;4939969;28;20047;-81
2021/08/03 01:09:28;;;;;;;6.88;5.20;;;;;;;12.22;100.00;100993.06;4957415;28;20435;-84
2021/08/03 01:12:19;;;;;;;8.52;5.20;;;;;;;12.17;100.00;101001.66;4973658;28;20399;-84
2021/08/03 01:14:58;;;;;;;8.38;4.88;;;;;;;12.14;100.00;100998.44;4959327;28;20395;-84
2021/08/03 01:17:54;;;;;;;7.70;4.85;;;;;;;12.10;100.00;101003.31;4998618;28;20046;-82
2021/08/03 01:20:45;;;;;;;6.43;4.28;;;;;;;11.99;100.00;101008.22;4976948;28;20263;-84
2021/08/03 01:23:35;;;;;;;6.35;4.65;;;;;;;11.90;100.00;101002.81;4980764;28;20073;-79
2021/08/03 01:26:27;;;;;;;6.05;3.95;;;;;;;11.86;100.00;100998.81;4977436;28;20042;-80
2021/08/03 01:29:00;;;;;;;5.50;4.13;;;;;;;11.80;100.00;100994.06;4979020;28;20496;-81
2021/08/03 01:31:29;;;;;;;5.78;3.97;;;;;;;11.78;100.00;100996.06;4980922;28;20042;-81
2021/08/03 01:34:09;;;;;;;6.15;3.85;;;;;;;11.79;100.00;100997.75;4978018;28;20089;-85
2021/08/03 01:36:40;;;;;;;6.80;3.65;;;;;;;11.75;100.00;100994.56;4979880;28;20510;-82
2021/08/03 01:39:06;;;;;;;7.68;4.40;;;;;;;11.76;100.00;100992.69;4978104;28;20058;-82
2021/08/03 01:41:33;;;;;;;7.03;4.45;;;;;;;11.73;100.00;100998.41;4963971;28;20121;-85
2021/08/03 01:44:02;;;;;;;7.32;4.53;;;;;;;11.70;100.00;100996.06;4979472;28;20069;-84
2021/08/03 01:46:28;;;;;;;8.10;4.60;;;;;;;11.67;100.00;100989.16;4975932;28;20391;-80
2021/08/03 01:48:57;;;;;;;6.53;4.57;;;;;;;11.60;100.00;100988.16;4982666;28;20046;-83
2021/08/03 01:51:23;;;;;;;5.82;4.28;;;;;;;11.59;100.00;100994.53;4982894;28;20124;-85
2021/08/03 01:53:49;;;;;;;5.78;4.35;;;;;;;11.63;100.00;100987.00;4973196;28;20479;-81
2021/08/03 01:56:16;;;;;;;6.90;4.70;;;;;;;11.53;100.00;100981.75;4982015;28;20042;-84
2021/08/03 01:58:42;;;;;;;6.15;4.20;;;;;;;11.50;100.00;100980.22;4994922;28;20085;-82
2021/08/03 02:01:09;;;;;;;6.60;4.47;;;;;;;11.51;100.00;100986.47;4984360;28;20031;-83
2021/08/03 02:03:37;;;;;;;7.80;5.15;;;;;;;11.50;100.00;100977.56;5012446;28;20522;-85
2021/08/03 02:06:05;;;;;;;7.05;4.10;;;;;;;11.46;100.00;100973.53;4982723;28;20049;-82
2021/08/03 02:08:35;;;;;;;7.63;4.38;;;;;;;11.44;100.00;100980.91;4985097;28;20166;-84
2021/08/03 02:11:00;;;;;;;6.15;4.13;;;;;;;11.43;100.00;100987.28;4994132;28;20050;-82
2021/08/03 02:13:26;;;;;;;6.38;4.60;;;;;;;11.36;100.00;100974.66;4999054;28;20746;-81
2021/08/03 02:15:52;;;;;;;6.50;4.93;;;;;;;11.35;100.00;100979.22;4980993;28;20058;-82
2021/08/03 02:18:17;;;;;;;7.40;5.43;;;;;;;11.37;100.00;100981.75;4983544;28;20096;-82
2021/08/03 02:20:44;;;;;;;6.72;4.80;;;;;;;11.36;100.00;100978.19;4985447;28;20038;-85
2021/08/03 02:23:11;;;;;;;6.93;4.82;;;;;;;11.35;100.00;100981.91;4983243;28;20046;-82
2021/08/03 02:25:36;;;;;;;7.70;5.10;;;;;;;11.34;100.00;100980.22;4983773;28;20070;-84
2021/08/03 02:28:02;;;;;;;8.00;5.15;;;;;;;11.34;100.00;100982.91;4997648;28;20077;-85
2021/08/03 02:30:29;;;;;;;9.25;4.80;;;;;;;11.32;100.00;100979.53;4982839;28;20053;-82
2021/08/03 02:33:27;;;;;;;6.05;4.57;;;;;;;11.29;100.00;100985.25;4995227;28;20057;-84
2021/08/03 02:36:11;;;;;;;6.72;4.78;;;;;;;11.21;100.00;100983.38;4980681;28;20484;-86
2021/08/03 02:38:41;;;;;;;7.03;4.80;;;;;;;11.18;100.00;100980.19;4971564;28;20300;-82
2021/08/03 02:41:08;;;;;;;7.00;4.65;;;;;;;11.16;100.00;100983.00;4962192;28;20097;-82
2021/08/03 02:43:34;;;;;;;6.28;4.68;;;;;;;11.12;100.00;100978.97;4962697;28;20074;-82
2021/08/03 02:46:02;;;;;;;6.95;4.28;;;;;;;11.14;100.00;100976.16;4943378;28;20047;-86
2021/08/03 02:48:29;;;;;;;7.95;4.70;;;;;;;11.12;100.00;100978.16;4963047;28;20462;-83
2021/08/03 02:50:55;;;;;;;8.05;4.55;;;;;;;11.11;100.00;100980.00;4978390;28;20677;-87
2021/08/03 02:53:32;;;;;;;5.80;4.18;;;;;;;11.11;100.00;100971.94;4965864;28;20532;-82
2021/08/03 02:56:06;;;;;;;6.82;4.35;;;;;;;11.06;100.00;100974.28;4962772;28;20051;-85
2021/08/03 02:58:36;;;;;;;6.07;4.60;;;;;;;11.08;100.00;100977.66;4975334;28;20047;-82
2021/08/03 03:01:03;;;;;;;6.05;4.35;;;;;;;11.04;100.00;100976.28;4958901;28;20075;-84
2021/08/03 03:03:33;;;;;;;6.63;4.50;;;;;;;11.00;100.00;100975.75;4964081;28;20546;-84
2021/08/03 03:06:06;;;;;;;8.38;4.57;;;;;;;11.01;100.00;100977.44;4964079;28;20042;-81
2021/08/03 03:08:33;;;;;;;6.38;4.85;;;;;;;10.99;100.00;100967.84;4981724;28;20226;-80
2021/08/03 03:11:02;;;;;;;8.40;5.10;;;;;;;10.97;100.00;100975.25;4982321;28;20339;-82
2021/08/03 03:13:37;;;;;;;7.18;5.15;;;;;;;10.92;100.00;100973.03;4975106;28;20629;-84
2021/08/03 03:16:05;;;;;;;8.85;4.95;;;;;;;10.91;100.00;100971.38;4982391;28;20050;-85
2021/08/03 03:18:32;;;;;;;7.50;5.10;;;;;;;10.95;100.00;100970.03;5011032;28;20060;-83
2021/08/03 03:20:59;;;;;;;7.15;5.47;;;;;;;10.96;100.00;100978.91;4980901;28;20046;-84
2021/08/03 03:23:26;;;;;;;7.55;5.78;;;;;;;10.96;100.00;100971.72;4982605;28;20644;-83
2021/08/03 03:25:53;;;;;;;9.18;5.60;;;;;;;10.99;100.00;100973.22;4982056;28;20050;-86
2021/08/03 03:28:25;;;;;;;7.53;5.72;;;;;;;10.99;100.00;100966.03;4981379;28;20050;-82
2021/08/03 03:30:52;;;;;;;12.02;5.30;;;;;;;10.97;100.00;100972.56;4979880;28;20038;-87
2021/08/03 03:33:18;;;;;;;8.07;4.97;;;;;;;10.95;100.00;100969.19;4979569;28;20050;-84
2021/08/03 03:35:47;;;;;;;8.20;5.47;;;;;;;10.94;100.00;100976.41;4983089;28;20042;-84
2021/08/03 03:38:16;;;;;;;7.13;5.28;;;;;;;10.92;100.00;100967.66;4980728;28;20057;-83
2021/08/03 03:40:44;;;;;;;;;;;;;;;10.95;100.00;100969.19;4981077;28;20125;-84
2021/08/03 03:43:09;;;;;;;7.03;5.50;;;;;;;10.90;100.00;100966.97;5012880;28;19918;-83
2021/08/03 03:45:35;;;;;;;7.93;6.20;;;;;;;10.94;100.00;100968.34;4977467;28;20170;-85
2021/08/03 03:48:09;;;;;;;7.88;6.13;;;;;;;10.99;100.00;100963.34;4980037;28;20034;-83
2021/08/03 03:50:47;;;;;;;9.80;5.65;;;;;;;11.00;100.00;100958.81;4977607;28;22263;-84
2021/08/03 03:53:21;;;;;;;8.20;5.53;;;;;;;11.01;100.00;100958.63;4978362;28;20046;-85
2021/08/03 03:55:57;;;;;;;8.50;6.47;;;;;;;11.01;100.00;100965.84;4995696;28;20151;-82
2021/08/03 03:58:24;;;;;;;8.20;6.13;;;;;;;11.00;100.00;100964.19;4979692;28;20050;-85
2021/08/03 04:00:50;;;;;;;12.27;6.07;;;;;;;11.02;100.00;100968.38;4995632;28;20261;-83
2021/08/03 04:03:19;;;;;;;8.05;6.03;;;;;;;11.06;100.00;100960.84;4995653;28;20046;-84
2021/08/03 04:05:47;;;;;;;7.70;5.68;;;;;;;11.12;100.00;100962.03;4976470;28;20129;-83
2021/08/03 04:08:12;;;;;;;9.43;6.53;;;;;;;11.12;100.00;100957.50;4992896;28;22531;-85
2021/08/03 04:10:39;;;;;;;8.82;6.90;;;;;;;11.16;100.00;100966.06;4967151;28;20043;-82
2021/08/03 04:13:05;;;;;;;10.52;6.60;;;;;;;11.12;100.00;100962.03;4966423;28;20128;-82
2021/08/03 04:15:34;;;;;;;9.15;6.00;;;;;;;11.10;100.00;100958.66;4982296;28;20074;-84
2021/08/03 04:18:00;;;;;;;9.67;6.07;;;;;;;11.09;100.00;100957.00;4984739;28;20738;-81
2021/08/03 04:20:25;;;;;;;8.45;6.15;;;;;;;11.10;100.00;100955.97;4983881;28;20042;-84
2021/08/03 04:22:51;;;;;;;10.25;6.35;;;;;;;11.11;100.00;100960.38;4994473;28;20118;-88
2021/08/03 04:25:17;;;;;;;10.13;6.90;;;;;;;11.14;100.00;100960.03;4982210;28;20511;-85
2021/08/03 04:27:42;;;;;;;9.13;6.68;;;;;;;11.15;100.00;100954.47;4966781;28;20034;-82
2021/08/03 04:30:09;;;;;;;9.07;6.18;;;;;;;11.19;100.00;100954.97;4981644;28;20050;-82
2021/08/03 04:32:35;;;;;;;9.75;6.80;;;;;;;11.21;100.00;100953.00;4969699;28;20139;-84
2021/08/03 04:35:00;;;;;;;11.02;6.82;;;;;;;11.26;100.00;100953.34;4980164;28;20499;-87
2021/08/03 04:37:26;;;;;;;10.23;6.75;;;;;;;11.29;100.00;100951.16;4952605;28;20380;-83
2021/08/03 04:39:51;;;;;;;11.02;6.57;;;;;;;11.32;100.00;100957.22;4970814;28;20049;-83
2021/08/03 04:42:16;;;;;;;10.75;7.20;;;;;;;11.37;100.00;100958.41;4986599;28;20042;-81
2021/08/03 04:44:42;;;;;;;10.30;7.10;;;;;;;11.41;100.00;100967.78;4986424;28;20042;-86
2021/08/03 04:47:07;;;;;;;9.00;6.97;;;;;;;11.42;100.00;100966.81;4973172;28;20183;-84
2021/08/03 04:49:33;;;;;;;10.02;6.90;;;;;;;11.51;100.00;100973.03;4974425;28;20495;-83
2021/08/03 04:51:59;;;;;;;8.35;5.93;;;;;;;11.55;100.00;100962.78;4969595;28;20110;-83
2021/08/03 04:54:25;;;;;;;11.13;6.30;;;;;;;11.59;100.00;100964.97;4966468;28;20070;-83
2021/08/03 04:56:51;;;;;;;9.57;7.03;;;;;;;11.66;100.00;100967.84;4965541;28;20125;-82
2021/08/03 04:59:16;;;;;;;10.18;6.53;;;;;;;11.67;100.00;100956.91;4960718;28;20047;-80
2021/08/03 05:01:41;;;;;;;10.00;6.57;;;;;;;11.81;100.00;100959.94;4965754;28;20047;-86
2021/08/03 05:04:07;;;;;;;9.57;7.50;;;;;;;11.80;100.00;100975.25;4965776;28;20480;-83
2021/08/03 05:06:32;;;;;;;8.95;7.55;;;;;;;11.88;100.00;100961.84;4966217;28;20046;-84
2021/08/03 05:08:58;;;;;;;8.77;7.22;;;;;;;11.86;100.00;100966.53;4964619;28;20126;-86
2021/08/03 05:11:23;;;;;;;10.82;7.20;;;;;;;11.91;100.00;100958.81;4959319;28;20051;-83
2021/08/03 05:13:48;;;;;;;10.52;6.95;;;;;;;11.97;100.00;100962.66;4959292;28;20054;-86
2021/08/03 05:16:14;;;;;;;10.68;7.38;;;;;;;12.03;100.00;100959.31;4960576;28;20039;-86
2021/08/03 05:18:39;;;;;;;10.68;7.60;;;;;;;12.07;100.00;100949.88;4960658;28;20112;-86
2021/08/03 05:21:04;;;;;;;11.23;7.10;;;;;;;12.12;100.00;100954.75;4959676;28;20046;-85
2021/08/03 05:23:31;;;;;;;10.05;7.00;;;;;;;12.13;100.00;100961.81;4955908;28;20483;-81
2021/08/03 05:25:56;;;;;;;12.13;7.63;;;;;;;12.17;100.00;100957.78;4978649;28;20050;-84
2021/08/03 05:28:22;;;;;;;11.93;8.02;;;;;;;12.19;100.00;100955.72;4983349;28;20053;-81
2021/08/03 05:30:49;;;;;;;11.40;7.68;;;;;;;12.19;100.00;100959.25;4975025;28;20042;-86
2021/08/03 05:33:15;;;;;;;10.52;7.72;;;;;;;12.25;100.00;100955.03;4966662;28;20104;-85
2021/08/03 05:35:41;;;;;;;10.95;8.05;;;;;;;12.28;100.00;100949.31;4979839;28;20042;-83
2021/08/03 05:38:07;;;;;;;11.38;7.90;;;;;;;12.33;100.00;100957.72;4978987;28;20116;-79
2021/08/03 05:40:32;;;;;;;10.77;7.93;;;;;;;12.34;100.00;100955.88;4980106;28;20548;-86
2021/08/03 05:42:57;;;;;;;10.18;8.18;;;;;;;12.33;100.00;100957.72;4976903;28;20050;-81
2021/08/03 05:45:23;;;;;;;12.85;7.93;;;;;;;12.42;100.00;100951.31;4980268;28;20144;-85
2021/08/03 05:47:50;;;;;;;10.50;8.48;;;;;;;12.50;100.00;100952.31;4975053;28;22134;-82
2021/08/03 05:50:15;;;;;;;11.57;8.02;;;;;;;12.50;100.00;100952.31;4976733;28;20050;-85
2021/08/03 05:52:40;;;;;;;14.13;8.82;;;;;;;12.57;100.00;100953.28;4982316;28;20046;-85
2021/08/03 05:55:06;;;;;;;11.75;8.20;;;;;;;12.63;100.00;100958.00;4970611;28;20042;-84
2021/08/03 05:57:31;;;;;;;10.15;7.80;;;;;;;12.71;100.00;100951.72;4983611;28;20039;-83
2021/08/03 05:59:57;;;;;;;13.15;9.05;;;;;;;12.77;100.00;100954.53;4994811;28;20184;-84
2021/08/03 06:02:22;;;;;;;11.80;8.38;;;;;;;12.84;100.00;100955.53;4979970;28;20108;-82
2021/08/03 06:04:48;;;;;;;10.10;8.05;;;;;;;12.96;100.00;100947.91;4969471;28;20038;-86
2021/08/03 06:07:15;;;;;;;10.65;8.57;;;;;;;13.02;100.00;100947.19;4983592;28;20046;-82
2021/08/03 06:09:42;;;;;;;8.90;7.97;;;;;;;13.08;100.00;100945.66;4984617;28;20508;-82
2021/08/03 06:12:10;;;;;;;11.70;8.00;;;;;;;13.15;100.00;100946.63;4983588;28;20133;-82
2021/08/03 06:14:44;;;;;;;11.90;8.80;;;;;;;13.18;100.00;100950.84;5000297;28;20086;-83
2021/08/03 06:17:13;;;;;;;10.77;8.02;;;;;;;13.31;100.00;100941.16;5009912;28;20069;-81
2021/08/03 06:19:52;;;;;;;10.50;7.38;;;;;;;13.40;100.00;100944.63;4995952;28;20046;-86
2021/08/03 06:22:18;;;;;;;11.35;7.78;;;;;;;13.46;100.00;100940.38;4979145;28;20350;-86
2021/08/03 06:24:47;;;;;;;10.15;7.55;;;;;;;13.52;100.00;100936.97;4980095;28;20100;-81
2021/08/03 06:27:15;;;;;;;10.73;7.80;;;;;;;13.61;100.00;100940.44;4978845;28;20053;-85
2021/08/03 06:29:41;;;;;;;11.47;7.53;;;;;;;13.66;100.00;100938.88;4985015;28;20058;-86
2021/08/03 06:32:09;;;;;;;11.93;7.85;;;;;;;13.72;100.00;100943.59;4976155;28;20038;-86
2021/08/03 06:34:36;;;;;;;10.38;7.70;;;;;;;13.75;100.00;100935.13;4987874;28;20034;-82
2021/08/03 06:37:02;;;;;;;10.70;7.47;;;;;;;13.80;100.00;100923.78;5020086;28;20120;-84
2021/08/03 06:39:28;;;;;;;8.55;6.88;;;;;;;13.86;100.00;100933.00;5003392;28;20489;-82
2021/08/03 06:42:03;;;;;;;9.80;7.13;;;;;;;13.91;99.08;100931.44;4988236;28;20078;-80
2021/08/03 06:44:37;;;;;;;12.15;6.57;;;;;;;13.97;99.34;100935.25;4986235;28;20285;-87
2021/08/03 06:47:03;;;;;;;8.13;6.68;;;;;;;14.05;99.76;100937.06;4988420;28;20572;-84
2021/08/03 06:49:32;;;;;;;9.52;6.55;;;;;;;14.15;99.23;100927.66;4988073;28;20489;-84
2021/08/03 06:51:57;;;;;;;9.85;6.45;;;;;;;14.25;98.55;100922.00;4985015;28;20500;-80
2021/08/03 06:54:27;;;;;;;7.35;5.78;;;;;;;14.33;98.71;100918.38;4989363;28;20046;-86
2021/08/03 06:57:11;;;;;;;7.07;5.70;;;;;;;14.35;97.07;100921.72;4988935;28;20407;-86
2021/08/03 07:00:05;;;;;;;8.00;6.15;;;;;;;14.45;96.93;100925.81;4997992;28;20062;-82
2021/08/03 07:02:37;;;;;;;7.65;5.60;;;;;;;14.51;97.83;100928.81;4962960;28;20034;-88
2021/08/03 07:05:08;;;;;;;7.60;5.82;;;;;;;14.57;97.08;100926.22;4988478;28;20108;-82
2021/08/03 07:07:34;;;;;;;8.90;5.72;;;;;;;14.63;96.59;100925.47;4985089;28;20034;-84
2021/08/03 07:10:05;;;;;;;8.00;5.50;;;;;;;14.70;96.50;100930.94;4969116;28;20129;-84
2021/08/03 07:12:31;;;;;;;8.48;5.68;;;;;;;14.80;96.47;100936.06;5003533;28;20495;-84
2021/08/03 07:14:57;;;;;;;12.27;6.20;;;;;;;14.88;96.49;100933.28;4988841;28;20043;-84
2021/08/03 07:17:25;;;;;;;10.38;6.28;;;;;;;14.94;95.56;100931.69;4985068;28;20103;-86
2021/08/03 07:19:51;;;;;;;9.63;5.75;;;;;;;14.98;94.93;100941.06;4984834;28;20150;-86
2021/08/03 07:22:17;;;;;;;7.55;5.40;;;;;;;15.03;94.84;100936.78;4987351;28;20100;-86
2021/08/03 07:24:44;;;;;;;7.32;5.03;;;;;;;15.10;94.47;100939.53;5002532;28;20046;-83
2021/08/03 07:27:10;;;;;;;9.40;5.20;;;;;;;15.20;94.76;100942.78;4984920;28;20046;-81
2021/08/03 07:29:36;;;;;;;8.43;5.00;;;;;;;15.19;93.68;100941.13;4981493;28;20411;-85
2021/08/03 07:32:01;;;;;;;8.00;4.95;;;;;;;15.26;92.77;100949.28;4969232;28;20233;-86
2021/08/03 07:34:27;;;;;;;6.97;5.18;;;;;;;15.33;92.86;100936.66;4988307;28;20174;-84
2021/08/03 07:36:52;;;;;;;7.38;4.55;;;;;;;15.42;92.81;100940.94;4987070;28;20074;-86
2021/08/03 07:39:19;;;;;;;6.40;4.60;;;;;;;15.51;92.90;100945.19;4985523;28;20065;-87
2021/08/03 07:41:44;;;;;;;10.38;5.00;;;;;;;15.64;92.91;100940.94;4986391;28;20490;-86
2021/08/03 07:44:09;;;;;;;7.38;4.95;;;;;;;15.65;90.11;100935.34;4985710;28;20240;-84
2021/08/03 07:46:35;;;;;;;6.72;4.45;;;;;;;15.73;91.11;100942.50;5002714;28;20492;-82
2021/08/03 07:49:06;;;;;;;6.40;4.40;;;;;;;15.85;90.33;100942.81;4997911;28;20054;-88
2021/08/03 07:51:32;;;;;;;7.25;4.65;;;;;;;15.94;89.35;100930.81;4988131;28;20042;-82
2021/08/03 07:53:58;;;;;;;8.90;5.03;;;;;;;15.99;89.67;100934.59;4984963;28;20038;-84
2021/08/03 07:56:23;;;;;;;5.53;4.72;;;;;;;16.11;90.44;100936.78;4987090;28;20387;-87
2021/08/03 07:58:48;;;;;;;7.97;4.97;;;;;;;16.23;90.33;100933.34;4983787;28;20046;-84
2021/08/03 08:01:17;;;;;;;7.07;4.45;;;;;;;16.30;88.79;100936.09;4987337;28;20494;-85
2021/08/03 08:03:43;;;;;;;7.03;4.95;;;;;;;16.39;88.10;100932.19;5002699;28;20483;-86
2021/08/03 08:06:09;;;;;;;6.68;4.43;;;;;;;16.51;89.03;100934.31;4975913;28;20129;-83
2021/08/03 08:08:34;;;;;;;6.72;4.18;;;;;;;16.59;87.17;100926.03;4970119;28;20034;-85
2021/08/03 08:11:00;;;;;;;5.97;4.30;;;;;;;16.62;85.81;100925.63;4985995;28;20039;-82
2021/08/03 08:13:25;;;;;;;6.45;4.60;;;;;;;16.69;86.31;100921.94;4986429;28;20057;-84
2021/08/03 08:15:51;;;;;;;7.35;4.25;;;;;;;16.81;86.33;100922.22;4986675;28;20435;-85
2021/08/03 08:18:17;;;;;;;6.85;3.72;;;;;;;16.85;84.97;100917.22;4984138;28;20045;-83
2021/08/03 08:20:44;;;;;;;8.50;4.28;;;;;;;16.79;84.26;100909.91;4987734;28;20287;-89
2021/08/03 08:23:11;;;;;;;6.30;4.22;;;;;;;16.87;86.18;100918.69;4986979;28;20070;-83
2021/08/03 08:25:37;;;;;;;6.22;4.13;;;;;;;16.94;85.23;100915.19;4986308;28;20058;-88
2021/08/03 08:28:03;;;;;;;9.05;4.28;;;;;;;17.10;85.14;100909.41;4985517;28;20076;-85
2021/08/03 08:30:29;;;;;;;7.45;4.70;;;;;;;17.10;83.73;100912.09;4979050;28;20074;-87
2021/08/03 08:32:54;;;;;;;7.97;4.75;;;;;;;17.02;82.55;100909.56;4985773;28;20329;-82
2021/08/03 08:35:20;;;;;;;6.80;4.28;;;;;;;17.16;84.59;100910.47;4985182;28;20507;-84
2021/08/03 08:37:46;;;;;;;6.55;4.32;;;;;;;17.23;84.33;100912.13;4986434;28;20046;-86
2021/08/03 08:40:12;;;;;;;6.45;3.88;;;;;;;17.26;82.70;100903.59;4986412;28;20038;-85
2021/08/03 08:42:38;;;;;;;7.63;4.60;;;;;;;17.32;84.60;100908.19;4985467;28;20088;-83
2021/08/03 08:45:05;;;;;;;7.55;4.20;;;;;;;17.39;83.13;100899.25;5001066;28;20241;-80
2021/08/03 08:47:32;;;;;;;9.50;4.50;;;;;;;17.32;83.54;100900.06;4985194;28;20051;-85
2021/08/03 08:50:05;;;;;;;9.98;3.95;;;;;;;17.34;82.35;100897.13;4987254;28;20046;-85
2021/08/03 08:52:32;;;;;;;7.38;3.65;;;;;;;17.40;81.67;100896.31;4998828;28;20042;-84
2021/08/03 08:54:57;;;;;;;9.15;3.75;;;;;;;17.45;82.02;100885.69;4985251;28;20030;-86
2021/08/03 08:57:22;;;;;;;7.60;4.18;;;;;;;17.55;82.16;100887.97;4986238;28;20415;-85
2021/08/03 08:59:48;;;;;;;8.85;4.20;;;;;;;17.61;81.69;100889.88;4985123;28;20034;-85
2021/08/03 09:02:13;;;;;;;6.72;4.60;;;;;;;17.66;81.66;100890.06;5017593;28;20046;-86
2021/08/03 09:04:46;;;;;;;6.93;4.38;;;;;;;17.64;81.89;100881.31;4983746;28;20039;-82
2021/08/03 09:07:12;;;;;;;6.45;4.30;;;;;;;17.70;82.07;100883.19;4985922;28;20038;-84
2021/08/03 09:09:42;;;;;;;7.72;3.95;;;;;;;17.74;82.38;100887.16;5012255;28;20034;-87
2021/08/03 09:12:08;;;;;;;8.50;4.70;;;;;;;17.75;81.18;100890.69;4973425;28;20141;-84
2021/08/03 09:14:39;;;;;;;6.95;4.18;;;;;;;17.74;80.81;100887.16;4969408;28;20125;-84
2021/08/03 09:17:05;;;;;;;6.20;3.88;;;;;;;17.73;81.57;100893.63;4984625;28;20219;-87
2021/08/03 09:19:30;;;;;;;6.35;3.97;;;;;;;17.78;81.47;100887.59;4986423;28;20039;-86
2021/08/03 09:22:23;;;;;;;6.22;4.18;;;;;;;17.80;80.57;100894.47;4986447;28;20052;-83
2021/08/03 09:25:09;;;;;;;4.78;3.20;;;;;;;17.77;80.50;100897.56;4953081;28;20529;-86
2021/08/03 09:27:42;;;;;;;6.13;3.15;;;;;;;17.77;80.01;100892.16;4976419;28;20050;-82
2021/08/03 09:30:29;;;;;;;7.75;4.43;;;;;;;17.74;78.91;100894.47;4979611;28;20126;-84
2021/08/03 09:32:55;;;;;;;7.00;4.05;;;;;;;17.74;79.64;100891.75;4998773;28;20069;-85
2021/08/03 09:35:22;;;;;;;8.50;3.65;;;;;;;17.69;78.62;100895.06;4994028;28;20077;-84
2021/08/03 09:37:48;;;;;;;5.93;3.08;;;;;;;17.73;77.76;100907.19;4978042;28;20039;-85
2021/08/03 09:40:22;;;;;;;6.82;3.65;;;;;;;17.75;79.73;100899.69;4993989;28;20400;-82
2021/08/03 09:42:58;;;;;;;5.78;4.28;;;;;;;17.74;79.25;100898.00;5004085;28;20047;-84
2021/08/03 09:45:24;;;;;;;8.38;5.03;;;;;;;17.68;78.89;100903.44;4979069;28;20565;-84
2021/08/03 09:47:49;;;;;;;7.38;4.40;;;;;;;17.71;79.54;100903.84;4981916;28;20333;-84
2021/08/03 09:50:18;;;;;;;8.43;4.25;;;;;;;17.74;79.59;100900.72;4965710;28;20077;-85
2021/08/03 09:52:45;;;;;;;8.73;3.95;;;;;;;17.80;79.46;100899.91;4995200;28;20069;-84
2021/08/03 09:55:12;;;;;;;5.50;3.53;;;;;;;17.88;79.78;100892.59;4978584;28;20138;-86
2021/08/03 09:57:38;;;;;;;8.00;4.50;;;;;;;17.93;79.49;100890.94;4968928;28;20062;-85
2021/08/03 10:00:25;;;;;;;7.85;4.07;;;;;;;17.94;78.14;100894.47;4955738;28;20046;-87
2021/08/03 10:02:53;;;;;;;8.77;4.07;;;;;;;17.98;77.82;100893.00;4958652;28;20133;-85
2021/08/03 10:05:20;;;;;;;8.00;4.63;;;;;;;17.98;77.59;100893.00;4959175;28;20077;-84
2021/08/03 10:07:45;;;;;;;7.22;4.00;;;;;;;18.06;77.51;100890.06;4958061;28;20100;-81
2021/08/03 10:10:12;;;;;;;8.65;4.40;;;;;;;18.17;76.96;100894.84;4978274;28;20042;-85
2021/08/03 10:12:38;;;;;;;7.72;4.25;;;;;;;18.19;76.95;100890.06;4964259;28;20480;-84
2021/08/03 10:15:04;;;;;;;10.15;4.30;;;;;;;18.17;75.43;100885.88;4964832;28;20088;-81
2021/08/03 10:17:30;;;;;;;9.43;4.93;;;;;;;18.21;76.58;100893.41;4939068;28;20070;-87
2021/08/03 10:19:59;;;;;;;7.43;4.00;;;;;;;18.39;75.82;100889.19;4962014;28;20078;-86
2021/08/03 10:22:29;;;;;;;6.32;3.45;;;;;;;18.49;75.93;100893.09;4943905;28;20258;-85
2021/08/03 10:25:02;;;;;;;7.65;3.53;;;;;;;18.61;75.83;100898.69;4970111;28;20050;-85
2021/08/03 10:27:47;;;;;;;7.50;3.47;;;;;;;18.76;74.68;100894.91;4968244;28;20042;-88
2021/08/03 10:30:27;;;;;;;5.88;3.75;;;;;;;18.87;73.04;100896.97;4941990;28;20047;-83
2021/08/03 10:32:55;;;;;;;6.88;3.47;;;;;;;18.91;72.01;100898.22;4984308;28;20133;-82
2021/08/03 10:35:39;;;;;;;9.00;4.35;;;;;;;18.92;74.27;100895.25;4967466;28;20039;-84
2021/08/03 10:38:07;;;;;;;7.75;3.90;;;;;;;18.96;72.30;100889.38;4974416;28;20525;-85
2021/08/03 10:40:44;;;;;;;6.97;3.97;;;;;;;19.05;73.57;100888.09;4981836;28;20102;-83
2021/08/03 10:43:32;;;;;;;8.60;4.13;;;;;;;19.10;73.18;100890.97;4961369;28;20110;-84
2021/08/03 10:46:06;;;;;;;6.55;4.10;;;;;;;19.06;72.93;100885.16;4966042;28;20035;-84
2021/08/03 10:48:38;;;;;;;7.03;4.40;;;;;;;19.07;73.06;100886.81;4980460;28;20383;-84
2021/08/03 10:51:12;;;;;;;6.22;3.90;;;;;;;19.06;73.45;100885.16;4984958;28;20148;-86
2021/08/03 10:53:59;;;;;;;6.55;3.92;;;;;;;19.08;72.86;100887.66;4987946;28;20042;-87
2021/08/03 10:56:25;;;;;;;7.43;3.90;;;;;;;19.07;73.37;100878.66;5001651;28;20042;-83
2021/08/03 10:59:10;;;;;;;6.55;3.42;;;;;;;19.08;72.49;100880.34;5002739;28;20279;-85
2021/08/03 11:01:46;;;;;;;7.03;3.78;;;;;;;19.14;72.19;100876.75;4975531;28;20049;-86
2021/08/03 11:04:42;;;;;;;8.75;3.63;;;;;;;19.19;73.32;100877.97;4964752;28;20057;-86
2021/08/03 11:07:36;;;;;;;6.85;3.90;;;;;;;19.24;72.64;100876.25;4983084;28;20034;-87
2021/08/03 11:10:14;;;;;;;5.35;3.25;;;;;;;19.21;70.62;100871.25;4985861;28;20629;-85
2021/08/03 11:12:48;;;;;;;6.57;3.60;;;;;;;19.26;72.57;100868.72;4993869;28;20054;-85
2021/08/03 11:15:19;;;;;;;7.65;4.22;;;;;;;19.25;71.96;100871.63;4978764;28;20045;-84
2021/08/03 11:18:02;;;;;;;7.45;4.00;;;;;;;19.21;71.95;100878.59;4982000;28;20432;-82
2021/08/03 11:20:33;;;;;;;6.07;4.00;;;;;;;19.00;69.81;100877.03;4984014;28;20050;-84
2021/08/03 11:23:01;;;;;;;7.30;3.38;;;;;;;19.02;71.39;100864.91;4993420;28;20455;-84
2021/08/03 11:25:29;;;;;;;5.60;2.83;;;;;;;19.12;70.19;100876.13;4978495;28;20059;-86
2021/08/03 11:27:54;;;;;;;7.13;3.30;;;;;;;19.07;71.20;100870.50;4987924;28;20646;-84